sensor_id;sensor_type;location;lat;lon;timestamp;temperature;humidity
65040;HTU21D;51606;45.000;38.612;2023-04-01T00:01:12;0.62;71.71
65040;HTU21D;51606;45.000;38.612;2023-04-01T00:03:40;0.65;71.78
65040;HTU21D;51606;45.000;38.612;2023-04-01T00:06:07;0.73;71.96
65040;HTU21D;51606;45.000;38.612;2023-04-01T00:08:33;0.79;71.90
65040;HTU21D;51606;45.000;38.612;2023-04-01T00:10:59;0.76;71.61
65040;HTU21D;51606;45.000;38.612;2023-04-01T00:13:26;0.65;71.62
65040;HTU21D;51606;45.000;38.612;2023-04-01T00:15:53;0.48;71.87
65040;HTU21D;51606;45.000;38.612;2023-04-01T00:18:20;0.40;72.14
65040;HTU21D;51606;45.000;38.612;2023-04-01T00:20:47;0.30;72.24
65040;HTU21D;51606;45.000;38.612;2023-04-01T00:23:15;0.16;72.26
65040;HTU21D;51606;45.000;38.612;2023-04-01T00:25:42;0.03;72.41
65040;HTU21D;51606;45.000;38.612;2023-04-01T00:28:08;-0.05;72.58
65040;HTU21D;51606;45.000;38.612;2023-04-01T00:30:36;-0.12;72.57
65040;HTU21D;51606;45.000;38.612;2023-04-01T00:33:03;-0.21;72.60
65040;HTU21D;51606;45.000;38.612;2023-04-01T00:35:29;-0.29;72.67
65040;HTU21D;51606;45.000;38.612;2023-04-01T00:37:56;-0.35;72.70
65040;HTU21D;51606;45.000;38.612;2023-04-01T00:40:29;-0.40;72.69
65040;HTU21D;51606;45.000;38.612;2023-04-01T00:42:57;-0.47;72.68
65040;HTU21D;51606;45.000;38.612;2023-04-01T00:45:31;-0.53;72.70
65040;HTU21D;51606;45.000;38.612;2023-04-01T00:48:01;-0.58;72.74
65040;HTU21D;51606;45.000;38.612;2023-04-01T00:50:29;-0.64;72.68
65040;HTU21D;51606;45.000;38.612;2023-04-01T00:52:57;-0.70;72.70
65040;HTU21D;51606;45.000;38.612;2023-04-01T00:55:25;-0.74;72.74
65040;HTU21D;51606;45.000;38.612;2023-04-01T00:57:54;-0.76;72.73
65040;HTU21D;51606;45.000;38.612;2023-04-01T01:00:22;-0.80;72.65
65040;HTU21D;51606;45.000;38.612;2023-04-01T01:02:50;-0.81;72.64
65040;HTU21D;51606;45.000;38.612;2023-04-01T01:05:18;-0.82;72.64
65040;HTU21D;51606;45.000;38.612;2023-04-01T01:08:00;-0.82;72.58
65040;HTU21D;51606;45.000;38.612;2023-04-01T01:10:33;-0.82;72.60
65040;HTU21D;51606;45.000;38.612;2023-04-01T01:27:34;-0.75;72.38
65040;HTU21D;51606;45.000;38.612;2023-04-01T01:30:15;-0.69;72.27
65040;HTU21D;51606;45.000;38.612;2023-04-01T01:35:47;-0.67;72.23
65040;HTU21D;51606;45.000;38.612;2023-04-01T01:38:23;-0.67;72.26
65040;HTU21D;51606;45.000;38.612;2023-04-01T01:40:56;-0.67;72.29
65040;HTU21D;51606;45.000;38.612;2023-04-01T01:43:29;-0.67;72.48
65040;HTU21D;51606;45.000;38.612;2023-04-01T01:46:00;-0.58;72.65
65040;HTU21D;51606;45.000;38.612;2023-04-01T01:48:29;-0.53;72.53
65040;HTU21D;51606;45.000;38.612;2023-04-01T01:50:56;-0.49;72.45
65040;HTU21D;51606;45.000;38.612;2023-04-01T01:53:23;-0.49;72.37
65040;HTU21D;51606;45.000;38.612;2023-04-01T01:55:50;-0.55;72.41
65040;HTU21D;51606;45.000;38.612;2023-04-01T01:58:33;-0.58;72.70
65040;HTU21D;51606;45.000;38.612;2023-04-01T02:01:12;-0.59;72.59
65040;HTU21D;51606;45.000;38.612;2023-04-01T02:03:41;-0.66;72.64
65040;HTU21D;51606;45.000;38.612;2023-04-01T02:06:12;-0.73;72.77
65040;HTU21D;51606;45.000;38.612;2023-04-01T02:08:44;-0.80;72.86
65040;HTU21D;51606;45.000;38.612;2023-04-01T02:11:15;-0.81;72.95
65040;HTU21D;51606;45.000;38.612;2023-04-01T02:16:44;-0.85;72.98
65040;HTU21D;51606;45.000;38.612;2023-04-01T02:19:13;-0.83;72.95
65040;HTU21D;51606;45.000;38.612;2023-04-01T02:21:41;-0.86;72.88
65040;HTU21D;51606;45.000;38.612;2023-04-01T02:24:12;-0.86;73.02
65040;HTU21D;51606;45.000;38.612;2023-04-01T03:07:19;0.07;74.40
65040;HTU21D;51606;45.000;38.612;2023-04-01T03:09:46;0.09;74.19
65040;HTU21D;51606;45.000;38.612;2023-04-01T03:12:12;0.09;74.16
65040;HTU21D;51606;45.000;38.612;2023-04-01T03:14:46;0.20;75.09
65040;HTU21D;51606;45.000;38.612;2023-04-01T03:17:13;0.46;74.80
65040;HTU21D;51606;45.000;38.612;2023-04-01T03:19:39;0.67;74.31
65040;HTU21D;51606;45.000;38.612;2023-04-01T03:22:10;0.97;73.99
65040;HTU21D;51606;45.000;38.612;2023-04-01T03:24:37;1.27;73.51
65040;HTU21D;51606;45.000;38.612;2023-04-01T03:27:03;1.64;72.96
65040;HTU21D;51606;45.000;38.612;2023-04-01T03:29:29;1.94;72.62
65040;HTU21D;51606;45.000;38.612;2023-04-01T03:31:56;2.14;72.20
65040;HTU21D;51606;45.000;38.612;2023-04-01T03:34:25;2.22;72.35
65040;HTU21D;51606;45.000;38.612;2023-04-01T03:36:52;2.51;72.40
65040;HTU21D;51606;45.000;38.612;2023-04-01T03:39:18;3.02;71.96
65040;HTU21D;51606;45.000;38.612;2023-04-01T03:41:45;3.54;71.45
65040;HTU21D;51606;45.000;38.612;2023-04-01T03:44:12;3.97;71.14
65040;HTU21D;51606;45.000;38.612;2023-04-01T03:46:39;4.31;71.03
65040;HTU21D;51606;45.000;38.612;2023-04-01T03:49:09;4.73;70.84
65040;HTU21D;51606;45.000;38.612;2023-04-01T03:51:43;5.13;70.56
65040;HTU21D;51606;45.000;38.612;2023-04-01T03:54:10;5.18;70.59
65040;HTU21D;51606;45.000;38.612;2023-04-01T03:56:37;5.27;70.68
65040;HTU21D;51606;45.000;38.612;2023-04-01T03:59:06;5.33;71.14
65040;HTU21D;51606;45.000;38.612;2023-04-01T04:01:33;5.84;70.84
65040;HTU21D;51606;45.000;38.612;2023-04-01T04:03:59;6.36;70.16
65040;HTU21D;51606;45.000;38.612;2023-04-01T04:06:27;6.59;69.80
65040;HTU21D;51606;45.000;38.612;2023-04-01T04:08:53;6.68;69.95
65040;HTU21D;51606;45.000;38.612;2023-04-01T04:11:21;7.04;69.48
65040;HTU21D;51606;45.000;38.612;2023-04-01T04:13:48;7.33;68.98
65040;HTU21D;51606;45.000;38.612;2023-04-01T04:16:17;7.53;69.06
65040;HTU21D;51606;45.000;38.612;2023-04-01T04:18:47;7.98;68.71
65040;HTU21D;51606;45.000;38.612;2023-04-01T04:21:15;8.34;68.05
65040;HTU21D;51606;45.000;38.612;2023-04-01T04:23:42;8.53;67.89
65040;HTU21D;51606;45.000;38.612;2023-04-01T04:26:13;8.77;67.64
65040;HTU21D;51606;45.000;38.612;2023-04-01T04:28:39;9.10;67.52
65040;HTU21D;51606;45.000;38.612;2023-04-01T04:31:06;9.61;66.72
65040;HTU21D;51606;45.000;38.612;2023-04-01T04:33:35;9.93;65.69
65040;HTU21D;51606;45.000;38.612;2023-04-01T04:36:03;10.13;65.68
65040;HTU21D;51606;45.000;38.612;2023-04-01T04:38:30;10.50;64.68
65040;HTU21D;51606;45.000;38.612;2023-04-01T04:40:57;10.93;64.60
65040;HTU21D;51606;45.000;38.612;2023-04-01T04:43:23;11.36;64.03
65040;HTU21D;51606;45.000;38.612;2023-04-01T04:45:51;11.70;63.71
65040;HTU21D;51606;45.000;38.612;2023-04-01T04:48:17;12.15;62.92
65040;HTU21D;51606;45.000;38.612;2023-04-01T04:50:49;12.42;62.34
65040;HTU21D;51606;45.000;38.612;2023-04-01T04:53:18;12.79;62.08
65040;HTU21D;51606;45.000;38.612;2023-04-01T04:55:46;13.22;61.47
65040;HTU21D;51606;45.000;38.612;2023-04-01T04:58:28;13.53;60.80
65040;HTU21D;51606;45.000;38.612;2023-04-01T05:00:55;13.74;60.33
65040;HTU21D;51606;45.000;38.612;2023-04-01T05:03:29;13.86;60.02
65040;HTU21D;51606;45.000;38.612;2023-04-01T05:05:56;14.03;59.69
65040;HTU21D;51606;45.000;38.612;2023-04-01T05:08:22;14.20;59.44
65040;HTU21D;51606;45.000;38.612;2023-04-01T05:10:48;14.50;59.08
65040;HTU21D;51606;45.000;38.612;2023-04-01T05:13:15;14.58;58.45
65040;HTU21D;51606;45.000;38.612;2023-04-01T05:15:45;14.80;58.23
65040;HTU21D;51606;45.000;38.612;2023-04-01T05:18:11;14.87;57.31
65040;HTU21D;51606;45.000;38.612;2023-04-01T05:20:37;15.09;57.63
65040;HTU21D;51606;45.000;38.612;2023-04-01T05:23:03;15.33;56.92
65040;HTU21D;51606;45.000;38.612;2023-04-01T05:25:30;15.59;56.87
65040;HTU21D;51606;45.000;38.612;2023-04-01T05:27:57;15.78;56.11
65040;HTU21D;51606;45.000;38.612;2023-04-01T05:30:24;15.73;55.97
65040;HTU21D;51606;45.000;38.612;2023-04-01T05:33:02;15.49;56.19
65040;HTU21D;51606;45.000;38.612;2023-04-01T05:35:28;15.68;56.45
65040;HTU21D;51606;45.000;38.612;2023-04-01T05:37:55;15.84;56.30
65040;HTU21D;51606;45.000;38.612;2023-04-01T05:40:21;15.82;55.57
65040;HTU21D;51606;45.000;38.612;2023-04-01T05:42:47;15.66;56.17
65040;HTU21D;51606;45.000;38.612;2023-04-01T05:45:15;15.60;56.30
65040;HTU21D;51606;45.000;38.612;2023-04-01T05:48:00;15.54;56.61
65040;HTU21D;51606;45.000;38.612;2023-04-01T05:50:30;15.48;56.64
65040;HTU21D;51606;45.000;38.612;2023-04-01T05:52:57;15.45;56.97
65040;HTU21D;51606;45.000;38.612;2023-04-01T05:55:24;15.37;56.25
65040;HTU21D;51606;45.000;38.612;2023-04-01T05:57:51;15.25;56.93
65040;HTU21D;51606;45.000;38.612;2023-04-01T06:00:18;15.53;56.79
65040;HTU21D;51606;45.000;38.612;2023-04-01T06:02:46;15.75;55.71
65040;HTU21D;51606;45.000;38.612;2023-04-01T06:05:22;15.60;55.04
65040;HTU21D;51606;45.000;38.612;2023-04-01T06:07:52;15.52;55.41
65040;HTU21D;51606;45.000;38.612;2023-04-01T06:10:22;15.83;55.18
65040;HTU21D;51606;45.000;38.612;2023-04-01T06:13:02;16.31;54.72
65040;HTU21D;51606;45.000;38.612;2023-04-01T06:16:39;16.59;54.14
65040;HTU21D;51606;45.000;38.612;2023-04-01T06:18:53;16.50;54.33
65040;HTU21D;51606;45.000;38.612;2023-04-01T06:32:56;16.50;55.16
65040;HTU21D;51606;45.000;38.612;2023-04-01T06:39:06;16.15;54.50
65040;HTU21D;51606;45.000;38.612;2023-04-01T06:41:24;16.08;54.86
65040;HTU21D;51606;45.000;38.612;2023-04-01T06:44:04;16.14;55.08
65040;HTU21D;51606;45.000;38.612;2023-04-01T06:47:02;16.56;55.23
65040;HTU21D;51606;45.000;38.612;2023-04-01T06:56:15;17.66;54.82
65040;HTU21D;51606;45.000;38.612;2023-04-01T06:59:02;17.54;55.07
65040;HTU21D;51606;45.000;38.612;2023-04-01T07:01:38;18.12;54.87
65040;HTU21D;51606;45.000;38.612;2023-04-01T07:09:21;18.44;54.39
65040;HTU21D;51606;45.000;38.612;2023-04-01T07:17:38;19.82;52.60
65040;HTU21D;51606;45.000;38.612;2023-04-01T07:20:20;19.83;51.66
65040;HTU21D;51606;45.000;38.612;2023-04-01T07:22:52;20.74;51.25
65040;HTU21D;51606;45.000;38.612;2023-04-01T07:25:31;21.30;48.98
65040;HTU21D;51606;45.000;38.612;2023-04-01T07:28:35;21.29;48.99
65040;HTU21D;51606;45.000;38.612;2023-04-01T07:31:20;21.95;48.57
65040;HTU21D;51606;45.000;38.612;2023-04-01T07:34:00;22.40;47.28
65040;HTU21D;51606;45.000;38.612;2023-04-01T07:42:45;22.07;45.49
65040;HTU21D;51606;45.000;38.612;2023-04-01T07:45:23;22.07;45.64
65040;HTU21D;51606;45.000;38.612;2023-04-01T07:50:34;22.78;45.04
65040;HTU21D;51606;45.000;38.612;2023-04-01T07:53:30;22.72;43.71
65040;HTU21D;51606;45.000;38.612;2023-04-01T07:56:23;22.46;44.33
65040;HTU21D;51606;45.000;38.612;2023-04-01T08:07:23;24.12;43.98
65040;HTU21D;51606;45.000;38.612;2023-04-01T08:10:23;24.21;43.96
65040;HTU21D;51606;45.000;38.612;2023-04-01T08:13:46;24.09;44.75
65040;HTU21D;51606;45.000;38.612;2023-04-01T08:16:50;24.35;43.84
65040;HTU21D;51606;45.000;38.612;2023-04-01T08:22:22;25.06;43.27
65040;HTU21D;51606;45.000;38.612;2023-04-01T08:24:51;24.46;43.42
65040;HTU21D;51606;45.000;38.612;2023-04-01T08:30:04;24.94;43.34
65040;HTU21D;51606;45.000;38.612;2023-04-01T08:32:39;25.28;42.32
65040;HTU21D;51606;45.000;38.612;2023-04-01T08:58:46;26.46;43.13
65040;HTU21D;51606;45.000;38.612;2023-04-01T09:06:36;26.05;43.30
65040;HTU21D;51606;45.000;38.612;2023-04-01T09:34:33;24.21;43.19
65040;HTU21D;51606;45.000;38.612;2023-04-01T09:54:32;21.64;42.50
65040;HTU21D;51606;45.000;38.612;2023-04-01T10:00:20;19.70;43.85
65040;HTU21D;51606;45.000;38.612;2023-04-01T10:14:11;19.70;43.64
65040;HTU21D;51606;45.000;38.612;2023-04-01T10:22:54;17.90;44.58
65040;HTU21D;51606;45.000;38.612;2023-04-01T10:36:53;18.14;44.31
65040;HTU21D;51606;45.000;38.612;2023-04-01T10:42:51;18.09;44.45
65040;HTU21D;51606;45.000;38.612;2023-04-01T10:46:08;17.68;43.76
65040;HTU21D;51606;45.000;38.612;2023-04-01T11:12:15;17.03;44.52
65040;HTU21D;51606;45.000;38.612;2023-04-01T11:15:23;17.06;44.07
65040;HTU21D;51606;45.000;38.612;2023-04-01T11:32:12;16.89;44.30
65040;HTU21D;51606;45.000;38.612;2023-04-01T11:52:17;16.86;43.96
65040;HTU21D;51606;45.000;38.612;2023-04-01T12:05:41;17.01;44.00
65040;HTU21D;51606;45.000;38.612;2023-04-01T12:25:13;16.72;44.73
65040;HTU21D;51606;45.000;38.612;2023-04-01T12:30:55;16.90;44.36
65040;HTU21D;51606;45.000;38.612;2023-04-01T12:41:36;15.97;43.93
65040;HTU21D;51606;45.000;38.612;2023-04-01T12:44:29;15.70;44.45
65040;HTU21D;51606;45.000;38.612;2023-04-01T13:09:59;0.00;43.40
65040;HTU21D;51606;45.000;38.612;2023-04-01T13:12:19;14.93;43.85
65040;HTU21D;51606;45.000;38.612;2023-04-01T13:17:32;14.73;43.74
65040;HTU21D;51606;45.000;38.612;2023-04-01T13:31:26;14.50;43.58
65040;HTU21D;51606;45.000;38.612;2023-04-01T13:42:59;14.28;43.67
65040;HTU21D;51606;45.000;38.612;2023-04-01T13:51:18;14.13;43.70
65040;HTU21D;51606;45.000;38.612;2023-04-01T13:53:59;14.09;43.70
65040;HTU21D;51606;45.000;38.612;2023-04-01T14:04:47;13.86;43.48
65040;HTU21D;51606;45.000;38.612;2023-04-01T14:09:48;13.66;44.02
65040;HTU21D;51606;45.000;38.612;2023-04-01T14:26:21;13.41;44.36
65040;HTU21D;51606;45.000;38.612;2023-04-01T14:29:00;13.34;44.38
65040;HTU21D;51606;45.000;38.612;2023-04-01T14:31:59;13.27;44.35
65040;HTU21D;51606;45.000;38.612;2023-04-01T14:34:34;13.16;44.13
65040;HTU21D;51606;45.000;38.612;2023-04-01T14:40:15;12.91;44.29
65040;HTU21D;51606;45.000;38.612;2023-04-01T14:56:40;12.25;45.18
65040;HTU21D;51606;45.000;38.612;2023-04-01T15:13:05;11.64;46.02
65040;HTU21D;51606;45.000;38.612;2023-04-01T15:16:02;11.52;46.25
65040;HTU21D;51606;45.000;38.612;2023-04-01T15:21:18;11.27;46.56
65040;HTU21D;51606;45.000;38.612;2023-04-01T15:27:06;11.03;46.83
65040;HTU21D;51606;45.000;38.612;2023-04-01T15:29:52;10.87;46.99
65040;HTU21D;51606;45.000;38.612;2023-04-01T15:32:56;10.71;47.22
65040;HTU21D;51606;45.000;38.612;2023-04-01T15:40:49;10.13;47.99
65040;HTU21D;51606;45.000;38.612;2023-04-01T15:43:34;9.94;48.28
65040;HTU21D;51606;45.000;38.612;2023-04-01T15:54:15;9.21;49.08
65040;HTU21D;51606;45.000;38.612;2023-04-01T16:02:13;8.68;49.61
65040;HTU21D;51606;45.000;38.612;2023-04-01T16:04:51;8.56;49.79
65040;HTU21D;51606;45.000;38.612;2023-04-01T16:07:39;8.47;49.90
65040;HTU21D;51606;45.000;38.612;2023-04-01T16:11:03;8.37;49.94
65040;HTU21D;51606;45.000;38.612;2023-04-01T16:18:48;8.09;50.37
65040;HTU21D;51606;45.000;38.612;2023-04-01T16:21:53;8.06;50.42
65040;HTU21D;51606;45.000;38.612;2023-04-01T16:30:36;7.91;50.50
65040;HTU21D;51606;45.000;38.612;2023-04-01T16:33:15;7.89;50.57
65040;HTU21D;51606;45.000;38.612;2023-04-01T16:36:28;7.86;50.62
65040;HTU21D;51606;45.000;38.612;2023-04-01T16:41:24;7.76;50.89
65040;HTU21D;51606;45.000;38.612;2023-04-01T16:44:13;7.73;50.88
65040;HTU21D;51606;45.000;38.612;2023-04-01T16:46:44;7.69;50.94
65040;HTU21D;51606;45.000;38.612;2023-04-01T16:54:28;7.48;51.33
65040;HTU21D;51606;45.000;38.612;2023-04-01T17:03:08;7.25;51.82
65040;HTU21D;51606;45.000;38.612;2023-04-01T17:10:56;6.98;52.09
65040;HTU21D;51606;45.000;38.612;2023-04-01T17:16:24;6.71;52.36
65040;HTU21D;51606;45.000;38.612;2023-04-01T17:19:14;6.55;52.53
65040;HTU21D;51606;45.000;38.612;2023-04-01T17:38:54;5.94;52.99
65040;HTU21D;51606;45.000;38.612;2023-04-01T17:47:13;6.16;52.99
65040;HTU21D;51606;45.000;38.612;2023-04-01T17:50:14;6.31;52.81
65040;HTU21D;51606;45.000;38.612;2023-04-01T17:56:06;6.55;52.81
65040;HTU21D;51606;45.000;38.612;2023-04-01T18:01:17;6.78;52.66
65040;HTU21D;51606;45.000;38.612;2023-04-01T18:04:07;6.85;52.69
65040;HTU21D;51606;45.000;38.612;2023-04-01T18:09:24;6.82;52.78
65040;HTU21D;51606;45.000;38.612;2023-04-01T18:17:25;6.67;53.19
65040;HTU21D;51606;45.000;38.612;2023-04-01T18:20:24;6.53;53.31
65040;HTU21D;51606;45.000;38.612;2023-04-01T18:22:59;6.39;53.45
65040;HTU21D;51606;45.000;38.612;2023-04-01T18:25:42;6.27;53.63
65040;HTU21D;51606;45.000;38.612;2023-04-01T18:30:49;6.16;53.90
65040;HTU21D;51606;45.000;38.612;2023-04-01T18:33:34;6.09;53.85
65040;HTU21D;51606;45.000;38.612;2023-04-01T18:38:54;5.90;54.09
65040;HTU21D;51606;45.000;38.612;2023-04-01T18:45:09;5.93;54.20
65040;HTU21D;51606;45.000;38.612;2023-04-01T18:55:51;5.72;54.30
65040;HTU21D;51606;45.000;38.612;2023-04-01T19:01:23;5.54;54.50
65040;HTU21D;51606;45.000;38.612;2023-04-01T19:06:40;5.37;54.71
65040;HTU21D;51606;45.000;38.612;2023-04-01T19:09:20;5.28;54.78
65040;HTU21D;51606;45.000;38.612;2023-04-01T19:20:24;4.58;55.42
